Time;durP1;ratioP1;P1;durP2;ratioP2;P2;SDS_P1;SDS_P2;PMS_P1;PMS_P2;Temp;Humidity;BMP_temperature;BMP_pressure;BME280_temperature;BME280_humidity;BME280_pressure;Samples;Min_cycle;Max_cycle;Signal;HPM_P1;HPM_P2
2021/10/02 00:35:33;;;;;;;4.70;1.60;;;;;;;13.62;70.68;101132.16;10160010;28;20061;-69
2021/10/02 00:45:45;;;;;;;5.88;2.28;;;;;;;13.61;70.91;101136.06;10160467;28;20694;-68
2021/10/02 00:50:45;;;;;;;5.38;2.00;;;;;;;13.58;72.17;101132.03;10163374;28;20486;-69
2021/10/02 00:55:41;;;;;;;3.97;1.40;;;;;;;13.53;71.10;101126.72;10155044;28;20086;-70
2021/10/02 01:00:41;;;;;;;6.47;1.83;;;;;;;13.46;72.67;101135.44;10160628;28;20066;-69
2021/10/02 01:05:54;;;;;;;5.68;2.00;;;;;;;13.43;72.95;101130.59;10155579;28;20133;-69
2021/10/02 01:11:18;;;;;;;4.35;1.58;;;;;;;13.47;71.70;101125.25;10161009;28;20098;-69
2021/10/02 01:16:32;;;;;;;4.47;1.50;;;;;;;13.45;72.45;101122.03;10155684;28;20121;-70
2021/10/02 01:21:50;;;;;;;6.47;1.42;;;;;;;13.46;73.60;101120.91;10166722;28;20042;-69
2021/10/02 01:27:14;;;;;;;4.75;1.63;;;;;;;13.45;72.60;101116.53;10157204;28;21167;-69
2021/10/02 01:32:38;;;;;;;4.57;1.55;;;;;;;13.49;72.51;101117.50;10159985;28;20043;-69
2021/10/02 01:47:53;;;;;;;4.90;1.85;;;;;;;13.50;71.99;101099.88;10170075;28;20655;-67
2021/10/02 01:52:51;;;;;;;4.88;2.10;;;;;;;13.45;72.62;101106.34;10163395;28;20133;-68
2021/10/02 01:57:59;;;;;;;5.35;1.60;;;;;;;13.44;72.88;101109.44;10157008;28;20125;-69
2021/10/02 02:03:00;;;;;;;6.38;2.42;;;;;;;13.40;72.88;101103.00;10169294;28;20081;-67
2021/10/02 02:08:04;;;;;;;5.00;2.28;;;;;;;13.41;73.23;101105.41;10169909;28;20042;-67
2021/10/02 02:13:01;;;;;;;6.75;2.00;;;;;;;13.40;74.11;101101.03;10165883;28;20038;-69
2021/10/02 02:18:06;;;;;;;5.05;2.03;;;;;;;13.35;74.68;101101.22;10164134;28;20050;-68
2021/10/02 02:23:04;;;;;;;7.38;2.15;;;;;;;13.28;75.93;101100.13;10160939;28;20046;-68
2021/10/02 02:28:04;;;;;;;9.50;3.08;;;;;;;13.16;77.37;101104.31;10167635;28;20058;-68
2021/10/02 02:33:01;;;;;;;6.57;2.45;;;;;;;13.12;78.66;101097.84;10164912;28;20062;-68
2021/10/02 02:37:58;;;;;;;6.90;2.58;;;;;;;13.17;78.73;101094.94;10168646;28;20073;-68
2021/10/02 02:42:56;;;;;;;9.63;3.58;;;;;;;13.14;79.78;101092.84;10168720;28;20085;-68
2021/10/02 02:48:12;;;;;;;7.28;2.80;;;;;;;13.16;80.56;101092.50;10167931;28;20137;-68
2021/10/02 02:53:41;;;;;;;6.35;2.80;;;;;;;13.15;80.48;101086.22;10160691;28;20097;-68
2021/10/02 02:58:40;;;;;;;8.10;3.13;;;;;;;13.18;80.91;101085.56;10162666;28;20077;-68
2021/10/02 03:03:38;;;;;;;7.90;2.78;;;;;;;13.24;80.88;101099.91;10162105;28;20124;-71
2021/10/02 03:08:38;;;;;;;6.75;2.72;;;;;;;13.24;81.27;101088.94;10163479;28;20137;-68
2021/10/02 03:13:38;;;;;;;7.10;2.80;;;;;;;13.25;81.26;101085.88;10170396;28;20042;-69
2021/10/02 03:18:39;;;;;;;11.10;3.80;;;;;;;13.22;81.37;101083.75;10170047;28;20048;-69
2021/10/02 03:23:38;;;;;;;7.25;3.45;;;;;;;13.24;81.78;101080.69;10165763;28;20050;-69
2021/10/02 03:28:35;;;;;;;9.73;4.07;;;;;;;13.18;82.28;101084.75;10171003;28;20753;-70
2021/10/02 03:33:32;;;;;;;9.43;3.80;;;;;;;13.22;82.44;101086.50;10156376;28;20069;-69
2021/10/02 03:38:30;;;;;;;8.95;3.97;;;;;;;13.26;82.31;101082.00;10167373;28;20141;-70
2021/10/02 03:43:35;;;;;;;6.35;3.38;;;;;;;13.28;82.50;101075.41;10162903;28;20069;-69
2021/10/02 03:48:32;;;;;;;10.82;3.60;;;;;;;13.26;82.44;101071.00;10162423;28;20070;-69
2021/10/02 03:53:29;;;;;;;8.75;4.45;;;;;;;13.21;82.58;101073.94;10155879;28;20045;-69
2021/10/02 03:58:27;;;;;;;10.60;4.43;;;;;;;13.26;82.46;101060.03;10160655;28;20050;-68
2021/10/02 04:03:23;;;;;;;9.80;4.13;;;;;;;13.25;82.03;101052.94;10165140;28;20150;-69
2021/10/02 04:08:20;;;;;;;9.63;4.00;;;;;;;13.25;81.80;101063.91;10146671;28;20080;-70
2021/10/02 04:13:16;;;;;;;8.43;4.05;;;;;;;13.24;81.79;101056.78;10165786;28;20069;-69
2021/10/02 04:18:13;;;;;;;12.38;4.50;;;;;;;13.27;82.01;101055.31;10161720;28;20046;-69
2021/10/02 04:23:10;;;;;;;9.07;4.55;;;;;;;13.28;82.13;101065.22;10152109;28;20054;-69
2021/10/02 04:28:06;;;;;;;6.78;3.95;;;;;;;13.30;81.81;101064.88;10162154;28;20069;-68
2021/10/02 04:33:02;;;;;;;10.27;3.97;;;;;;;13.31;81.55;101061.00;10160026;28;20516;-69
2021/10/02 04:37:59;;;;;;;7.95;3.58;;;;;;;13.31;81.24;101052.78;10164116;28;20073;-67
2021/10/02 04:42:55;;;;;;;10.82;3.22;;;;;;;13.29;81.27;101063.28;10161603;28;20073;-67
2021/10/02 04:47:52;;;;;;;9.05;4.10;;;;;;;13.30;81.46;101065.72;10161383;28;20100;-68
2021/10/02 04:52:52;;;;;;;8.70;3.67;;;;;;;13.28;81.30;101061.69;10154287;28;20066;-68
2021/10/02 04:57:48;;;;;;;9.32;4.47;;;;;;;13.30;81.25;101059.38;10160700;28;20445;-68
2021/10/02 05:02:45;;;;;;;11.10;4.15;;;;;;;13.26;81.64;101054.53;10159601;28;20072;-68
2021/10/02 05:07:41;;;;;;;11.80;3.75;;;;;;;13.28;82.05;101061.69;10160008;28;20141;-68
2021/10/02 05:12:38;;;;;;;8.63;3.95;;;;;;;13.21;82.66;101059.41;10166283;28;20069;-68
2021/10/02 05:17:34;;;;;;;10.00;4.13;;;;;;;13.19;82.75;101058.91;10156141;28;20132;-69
2021/10/02 05:22:31;;;;;;;6.82;3.85;;;;;;;13.15;83.26;101058.75;10160048;28;20100;-69
2021/10/02 05:27:27;;;;;;;11.25;4.78;;;;;;;13.12;84.09;101053.91;10149398;28;20137;-68
2021/10/02 05:32:25;;;;;;;9.57;4.50;;;;;;;13.08;83.49;101057.66;10161109;28;20045;-68
2021/10/02 05:37:23;;;;;;;9.43;5.15;;;;;;;13.07;84.22;101067.03;10164094;28;20074;-68
2021/10/02 05:42:19;;;;;;;12.23;5.57;;;;;;;13.05;84.81;101072.84;10156107;28;20038;-68
2021/10/02 05:47:16;;;;;;;9.50;5.22;;;;;;;13.01;85.76;101074.59;10151481;28;20594;-68
2021/10/02 05:52:12;;;;;;;11.32;5.85;;;;;;;13.02;86.00;101081.72;10155636;28;20065;-68
2021/10/02 05:57:09;;;;;;;13.15;5.85;;;;;;;13.04;85.96;101084.94;10159851;28;20073;-68
2021/10/02 06:02:06;;;;;;;10.32;6.28;;;;;;;13.04;85.93;101091.25;10162292;28;20065;-68
2021/10/02 06:07:02;;;;;;;11.52;6.05;;;;;;;13.05;86.07;101094.78;10163370;28;20049;-68
2021/10/02 06:11:59;;;;;;;13.73;6.25;;;;;;;13.07;85.91;101089.78;10163559;28;20682;-69
2021/10/02 06:16:56;;;;;;;13.80;6.93;;;;;;;13.05;85.92;101081.88;10156297;28;20105;-69
2021/10/02 06:21:52;;;;;;;12.45;6.03;;;;;;;13.09;86.80;101097.69;10167847;28;20137;-69
2021/10/02 06:26:49;;;;;;;13.23;6.22;;;;;;;13.09;86.29;101090.28;10153321;28;20046;-68
2021/10/02 06:31:45;;;;;;;12.10;6.95;;;;;;;13.15;86.23;101080.72;10169003;28;20042;-68
2021/10/02 06:36:43;;;;;;;13.02;6.35;;;;;;;13.17;86.15;101086.69;10161416;28;20057;-69
2021/10/02 06:41:39;;;;;;;13.02;6.88;;;;;;;13.17;86.39;101094.94;10172150;28;20149;-69
2021/10/02 06:46:36;;;;;;;14.27;6.45;;;;;;;13.15;86.48;101102.69;10178871;28;20046;-68
2021/10/02 06:51:32;;;;;;;13.77;6.93;;;;;;;13.16;87.03;101107.06;10163385;28;20152;-69
2021/10/02 06:56:29;;;;;;;14.77;6.85;;;;;;;13.12;87.03;101117.06;10138309;28;20042;-68
2021/10/02 07:01:25;;;;;;;13.07;6.53;;;;;;;13.11;87.38;101111.88;10167170;28;20061;-68
2021/10/02 07:06:26;;;;;;;14.07;6.97;;;;;;;13.09;87.24;101108.66;10158959;28;20046;-68
2021/10/02 07:11:23;;;;;;;12.43;7.18;;;;;;;13.11;87.76;101101.75;10163806;28;20098;-68
2021/10/02 07:16:21;;;;;;;13.88;7.03;;;;;;;13.11;86.99;101101.75;10161129;28;20073;-67
2021/10/02 07:21:17;;;;;;;13.05;5.93;;;;;;;13.17;87.02;101108.66;10152970;28;20060;-68
2021/10/02 07:26:14;;;;;;;13.85;6.90;;;;;;;13.18;86.81;101113.03;10168350;28;20065;-68
2021/10/02 07:31:10;;;;;;;18.17;7.18;;;;;;;13.24;87.01;101110.91;10157030;28;20054;-68
2021/10/02 07:36:07;;;;;;;13.88;6.13;;;;;;;13.20;86.19;101116.22;10157479;28;20056;-68
2021/10/02 07:41:04;;;;;;;12.90;6.78;;;;;;;13.23;86.62;101118.34;10162608;28;20073;-69
2021/10/02 07:46:01;;;;;;;13.55;7.40;;;;;;;13.23;86.42;101112.84;10160498;28;20089;-69
2021/10/02 07:50:57;;;;;;;13.63;7.35;;;;;;;13.28;86.48;101109.16;10155697;28;20069;-69
2021/10/02 07:55:54;;;;;;;16.73;6.90;;;;;;;13.29;86.74;101118.19;10143575;28;20419;-69
2021/10/02 08:00:55;;;;;;;14.50;7.05;;;;;;;13.33;86.79;101119.16;10148284;28;20571;-68
2021/10/02 08:05:52;;;;;;;13.90;6.97;;;;;;;13.39;87.05;101109.59;10154794;28;20081;-68
2021/10/02 08:10:50;;;;;;;14.27;7.85;;;;;;;13.45;86.21;101089.06;10127149;28;20190;-68
2021/10/02 08:15:54;;;;;;;13.65;7.28;;;;;;;13.54;85.98;101076.13;10140719;28;20070;-68
2021/10/02 08:20:54;;;;;;;17.38;8.30;;;;;;;13.56;86.66;101079.34;10153724;28;20046;-68
2021/10/02 08:25:52;;;;;;;16.77;7.75;;;;;;;13.55;86.52;101088.69;10109925;28;20046;-69
2021/10/02 08:30:50;;;;;;;15.70;8.35;;;;;;;13.61;86.54;101087.41;10147165;28;20066;-69
2021/10/02 08:35:47;;;;;;;13.63;8.93;;;;;;;13.51;87.12;101093.25;10144595;28;20046;-73
2021/10/02 08:40:45;;;;;;;19.23;9.52;;;;;;;13.65;86.65;101082.88;10141012;28;20050;-69
2021/10/02 08:45:42;;;;;;;15.30;7.82;;;;;;;13.70;86.48;101089.31;10141057;28;20145;-69
2021/10/02 08:50:41;;;;;;;17.75;9.23;;;;;;;13.70;86.58;101100.31;10150670;28;20046;-70
2021/10/02 08:55:38;;;;;;;15.85;9.18;;;;;;;13.67;86.85;101108.06;10153315;28;20093;-71
2021/10/02 09:00:36;;;;;;;15.68;9.10;;;;;;;13.62;87.32;101100.00;10142477;28;20126;-69
2021/10/02 09:05:32;;;;;;;11.05;6.97;;;;;;;13.64;87.24;101092.22;10144960;28;20159;-70
2021/10/02 09:10:32;;;;;;;13.57;7.53;;;;;;;13.70;86.63;101090.13;10142465;28;20140;-68
2021/10/02 09:15:30;;;;;;;11.00;6.88;;;;;;;13.81;86.21;101107.06;10152190;28;20073;-68
2021/10/02 09:20:27;;;;;;;12.23;7.90;;;;;;;13.91;85.79;101101.19;10153126;28;20523;-69
2021/10/02 09:25:26;;;;;;;16.13;7.75;;;;;;;14.02;85.50;101091.41;10157776;28;20074;-69
2021/10/02 09:30:23;;;;;;;10.75;7.22;;;;;;;14.08;84.80;101090.06;10155769;28;20054;-71
2021/10/02 09:35:23;;;;;;;11.05;7.30;;;;;;;14.17;84.59;101091.97;10147121;28;20552;-70
2021/10/02 09:40:22;;;;;;;9.13;6.10;;;;;;;14.24;84.78;101078.50;10158466;28;20046;-70
2021/10/02 09:45:35;;;;;;;11.18;7.10;;;;;;;14.34;84.31;101069.84;10157335;28;20188;-70
2021/10/02 09:50:35;;;;;;;13.23;7.73;;;;;;;14.44;82.96;101052.16;10164837;28;20459;-69
2021/10/02 09:55:47;;;;;;;13.00;6.88;;;;;;;14.62;83.32;101047.31;10166239;28;20448;-70
2021/10/02 10:00:46;;;;;;;9.30;6.07;;;;;;;14.85;82.47;101040.34;10162270;28;20092;-71
2021/10/02 10:05:45;;;;;;;10.32;5.72;;;;;;;14.96;82.56;101046.19;10165372;28;20077;-69
2021/10/02 10:10:42;;;;;;;12.50;5.57;;;;;;;14.90;79.90;101042.06;10159798;28;20086;-70
2021/10/02 10:15:41;;;;;;;11.85;6.25;;;;;;;15.06;80.49;101031.19;10142774;28;20559;-69
2021/10/02 10:20:40;;;;;;;10.38;5.50;;;;;;;15.25;79.80;101037.00;10151506;28;20096;-72
2021/10/02 10:25:48;;;;;;;11.40;6.07;;;;;;;15.41;78.51;101033.53;10145281;28;20050;-69
2021/10/02 10:30:47;;;;;;;8.48;5.22;;;;;;;15.32;77.44;101048.25;10149888;28;20292;-68
2021/10/02 10:35:47;;;;;;;10.77;5.00;;;;;;;15.34;77.66;101040.44;10156475;28;20088;-69
2021/10/02 10:40:43;;;;;;;10.15;5.32;;;;;;;15.31;77.56;101032.84;10155633;28;20066;-70
2021/10/02 10:45:41;;;;;;;12.88;4.60;;;;;;;15.22;77.66;101043.16;10170914;28;20463;-70
2021/10/02 10:50:42;;;;;;;8.27;3.33;;;;;;;15.18;76.72;101047.75;10159243;28;20052;-70
2021/10/02 10:55:53;;;;;;;7.00;3.38;;;;;;;15.10;76.82;101040.38;10152909;28;20077;-70
2021/10/02 11:00:50;;;;;;;11.93;4.20;;;;;;;15.17;77.99;101035.13;10165337;28;20464;-70
2021/10/02 11:05:47;;;;;;;9.32;4.40;;;;;;;15.31;78.18;101041.13;10178214;28;20042;-70
2021/10/02 11:10:50;;;;;;;8.30;3.90;;;;;;;15.29;77.21;101043.44;10157543;28;20113;-70
2021/10/02 11:15:48;;;;;;;11.73;4.67;;;;;;;15.35;77.36;101035.72;10167847;28;20459;-70
2021/10/02 11:20:44;;;;;;;11.50;4.70;;;;;;;15.47;77.01;101021.16;10162762;28;20462;-70
2021/10/02 11:25:43;;;;;;;8.15;3.00;;;;;;;15.57;76.19;101028.97;10159268;28;20097;-70
2021/10/02 11:30:47;;;;;;;11.00;4.20;;;;;;;15.75;75.20;101022.09;10158019;28;20461;-70
2021/10/02 11:35:45;;;;;;;9.70;3.25;;;;;;;15.86;74.48;101011.41;10160380;28;20107;-69
2021/10/02 11:40:42;;;;;;;11.20;3.30;;;;;;;15.84;74.17;101018.44;10164695;28;20082;-70
2021/10/02 11:45:44;;;;;;;8.75;3.47;;;;;;;15.81;74.22;101014.41;10169508;28;20046;-70
2021/10/02 11:50:42;;;;;;;9.93;2.97;;;;;;;15.73;74.08;101012.56;10177196;28;20161;-69
2021/10/02 11:55:42;;;;;;;7.07;3.47;;;;;;;15.65;74.14;101000.50;10155037;28;20046;-70
2021/10/02 12:00:40;;;;;;;7.03;2.50;;;;;;;15.62;74.79;100984.66;10160590;28;20053;-70
2021/10/02 12:05:39;;;;;;;6.47;2.45;;;;;;;15.78;74.79;100980.06;10155334;28;20119;-70
2021/10/02 12:11:11;;;;;;;6.00;2.45;;;;;;;15.84;73.83;100969.59;10161143;28;20050;-70
2021/10/02 12:16:13;;;;;;;7.45;3.10;;;;;;;15.86;72.70;100969.25;10156085;28;20114;-69
2021/10/02 12:21:22;;;;;;;6.38;3.45;;;;;;;16.00;73.50;100961.41;10149933;28;20077;-70
2021/10/02 12:26:19;;;;;;;8.02;3.78;;;;;;;16.02;73.00;100953.59;10158717;28;20109;-70
2021/10/02 12:31:15;;;;;;;8.05;4.00;;;;;;;16.15;72.60;100952.41;10159223;28;20741;-70
2021/10/02 12:36:12;;;;;;;9.90;3.70;;;;;;;16.84;70.81;100955.09;10175670;28;20053;-70
2021/10/02 12:41:09;;;;;;;8.85;3.63;;;;;;;17.07;69.50;100935.16;10162053;28;20041;-69
2021/10/02 12:46:17;;;;;;;6.43;3.40;;;;;;;17.86;67.33;100940.59;10161884;28;20101;-70
2021/10/02 12:51:14;;;;;;;7.68;3.60;;;;;;;18.13;65.09;100919.44;10157217;28;20043;-70
2021/10/02 12:56:15;;;;;;;7.50;4.20;;;;;;;18.27;63.90;100919.69;10146863;28;20097;-70
2021/10/02 13:01:12;;;;;;;6.07;4.00;;;;;;;17.97;64.35;100922.25;10165586;28;20104;-70
2021/10/02 13:06:09;;;;;;;6.85;3.72;;;;;;;17.64;65.89;100919.94;10156403;28;20662;-70
2021/10/02 13:11:05;;;;;;;7.10;4.43;;;;;;;17.39;66.43;100925.69;10140491;28;20453;-70
2021/10/02 13:16:02;;;;;;;7.82;4.22;;;;;;;17.15;67.52;100925.88;10167336;28;20045;-70
2021/10/02 13:21:07;;;;;;;5.93;3.88;;;;;;;16.82;68.36;100916.00;10158717;28;20061;-70
2021/10/02 13:26:21;;;;;;;6.85;3.78;;;;;;;16.69;68.89;100925.50;10159081;28;20056;-69
2021/10/02 13:31:23;;;;;;;6.88;4.18;;;;;;;17.03;69.22;100916.56;10158602;28;20467;-70
2021/10/02 13:36:32;;;;;;;6.38;3.83;;;;;;;17.24;68.43;100924.56;10171079;28;20101;-69
2021/10/02 13:41:30;;;;;;;9.13;5.25;;;;;;;17.09;68.60;100899.69;10158466;28;20070;-68
2021/10/02 13:46:30;;;;;;;7.75;3.55;;;;;;;17.10;69.36;100879.19;10155598;28;20076;-69
2021/10/02 13:51:27;;;;;;;8.10;2.80;;;;;;;17.07;69.39;100890.97;10166294;28;20046;-68
2021/10/02 13:56:31;;;;;;;6.22;3.25;;;;;;;17.06;69.79;100889.34;10155682;28;20471;-69
2021/10/02 14:01:28;;;;;;;6.82;2.40;;;;;;;16.98;69.56;100877.34;10148181;28;20457;-69
2021/10/02 14:06:25;;;;;;;7.28;3.00;;;;;;;17.09;69.91;100872.06;10164919;28;20066;-68
2021/10/02 14:11:21;;;;;;;4.57;2.05;;;;;;;17.01;69.63;100860.84;10151041;28;20101;-68
2021/10/02 14:16:18;;;;;;;4.15;2.25;;;;;;;16.89;69.97;100852.66;10157662;28;20050;-69
2021/10/02 14:21:15;;;;;;;5.47;2.15;;;;;;;16.80;70.23;100841.00;10153285;28;20042;-68
2021/10/02 14:26:12;;;;;;;5.45;2.00;;;;;;;16.66;70.55;100837.84;10163177;28;20292;-69
2021/10/02 14:31:09;;;;;;;6.75;3.05;;;;;;;16.53;71.18;100840.69;10156213;28;20050;-68
2021/10/02 14:36:05;;;;;;;5.20;2.42;;;;;;;16.45;71.05;100838.09;10171055;28;20519;-68
2021/10/02 14:41:02;;;;;;;10.50;3.53;;;;;;;16.34;71.76;100837.84;10153393;28;20096;-69
2021/10/02 14:46:01;;;;;;;6.22;3.20;;;;;;;16.28;72.17;100828.22;10162386;28;20467;-69
2021/10/02 14:50:59;;;;;;;4.72;2.47;;;;;;;16.20;73.12;100833.53;10169721;28;20137;-69
2021/10/02 14:55:57;;;;;;;7.47;2.75;;;;;;;16.12;74.33;100837.25;10164098;28;20038;-68
2021/10/02 15:00:54;;;;;;;6.47;3.30;;;;;;;16.08;74.55;100836.38;10165142;28;20057;-70
2021/10/02 15:05:52;;;;;;;6.40;2.88;;;;;;;16.06;74.95;100815.78;10174993;28;20045;-70
2021/10/02 15:10:49;;;;;;;5.25;3.05;;;;;;;15.98;75.61;100806.53;10161746;28;20046;-70
2021/10/02 15:15:49;;;;;;;5.55;3.00;;;;;;;15.93;75.15;100812.31;10151401;28;20121;-70
2021/10/02 15:20:51;;;;;;;5.43;2.80;;;;;;;15.87;75.74;100792.44;10157765;28;20070;-70
2021/10/02 15:25:50;;;;;;;6.10;2.92;;;;;;;15.83;76.41;100785.22;10163437;28;20127;-70
2021/10/02 15:30:51;;;;;;;6.95;3.25;;;;;;;15.78;76.44;100789.84;10147272;28;20137;-71
2021/10/02 15:35:50;;;;;;;6.75;3.30;;;;;;;15.77;76.46;100788.25;10155549;28;20043;-71
2021/10/02 15:40:47;;;;;;;5.38;2.90;;;;;;;15.72;76.53;100785.75;10157234;28;20137;-72
2021/10/02 15:45:48;;;;;;;6.60;3.25;;;;;;;15.73;77.29;100787.38;10153924;28;20090;-70
2021/10/02 15:50:48;;;;;;;5.88;2.97;;;;;;;15.71;77.19;100766.78;10146247;28;20038;-70
2021/10/02 15:55:52;;;;;;;6.80;3.08;;;;;;;15.64;77.31;100759.13;10153923;28;20043;-70
2021/10/02 16:00:57;;;;;;;6.82;3.17;;;;;;;15.62;77.70;100753.16;10152703;28;20085;-70
2021/10/02 16:05:54;;;;;;;5.45;2.80;;;;;;;15.53;77.93;100749.75;10154505;28;20039;-70
2021/10/02 16:10:51;;;;;;;4.85;2.80;;;;;;;15.54;77.89;100756.84;10158192;28;20042;-69
2021/10/02 16:15:48;;;;;;;5.90;3.05;;;;;;;15.51;78.24;100747.31;10153644;28;20104;-70
2021/10/02 16:20:45;;;;;;;5.63;2.53;;;;;;;15.50;77.97;100756.75;10137090;28;20053;-71
2021/10/02 16:25:43;;;;;;;7.10;2.47;;;;;;;15.49;78.31;100748.84;10155705;28;20042;-71
2021/10/02 16:30:40;;;;;;;8.55;3.03;;;;;;;15.47;78.83;100742.88;10152508;28;20213;-71
2021/10/02 16:35:37;;;;;;;7.85;3.33;;;;;;;15.43;79.05;100739.19;10145484;28;20408;-71
2021/10/02 16:40:33;;;;;;;4.97;2.92;;;;;;;15.42;79.37;100737.59;10157834;28;20137;-70
2021/10/02 16:45:32;;;;;;;4.78;2.50;;;;;;;15.43;79.31;100728.19;10158014;28;20050;-72
2021/10/02 16:50:33;;;;;;;6.38;2.88;;;;;;;15.34;79.38;100715.38;10148827;28;20046;-70
2021/10/02 16:55:29;;;;;;;6.68;2.85;;;;;;;15.36;79.09;100696.53;10154551;28;20058;-70
2021/10/02 17:00:28;;;;;;;6.50;3.20;;;;;;;15.31;79.70;100671.19;10163548;28;20046;-70
2021/10/02 17:05:25;;;;;;;7.28;3.40;;;;;;;15.26;79.76;100660.41;10151512;28;20504;-70
2021/10/02 17:10:22;;;;;;;6.35;3.17;;;;;;;15.12;80.57;100641.53;10156487;28;20066;-70
2021/10/02 17:15:20;;;;;;;5.95;2.60;;;;;;;15.02;81.62;100642.06;10119372;28;20166;-70
2021/10/02 17:20:17;;;;;;;6.20;2.83;;;;;;;15.00;81.41;100633.34;10148141;28;20695;-71
2021/10/02 17:25:17;;;;;;;4.88;2.58;;;;;;;14.98;81.23;100630.13;10135466;28;20129;-70
2021/10/02 17:30:14;;;;;;;5.75;2.47;;;;;;;14.97;81.62;100628.50;10132519;28;20093;-70
2021/10/02 17:35:12;;;;;;;6.20;2.50;;;;;;;14.97;81.79;100628.50;10126066;28;20042;-71
2021/10/02 17:40:13;;;;;;;5.22;3.22;;;;;;;14.96;81.38;100621.41;10136121;28;20050;-71
2021/10/02 17:45:12;;;;;;;4.15;2.20;;;;;;;14.96;81.61;100604.91;10133377;28;20070;-70
2021/10/02 17:50:12;;;;;;;5.85;2.35;;;;;;;14.94;81.88;100602.47;10135049;28;20054;-71
2021/10/02 17:55:11;;;;;;;7.45;2.90;;;;;;;14.96;81.52;100593.88;10148504;28;20045;-71
2021/10/02 18:00:11;;;;;;;9.32;2.65;;;;;;;14.96;81.56;100588.38;10154254;28;20085;-71
2021/10/02 18:05:09;;;;;;;5.80;2.20;;;;;;;14.98;81.15;100586.09;10168002;28;20125;-71
2021/10/02 18:10:11;;;;;;;5.75;2.40;;;;;;;14.95;81.05;100571.06;10163564;28;20049;-71
2021/10/02 18:15:08;;;;;;;6.47;2.50;;;;;;;14.96;81.84;100558.09;10153580;28;20038;-73
2021/10/02 18:20:08;;;;;;;4.88;2.10;;;;;;;14.91;81.39;100557.19;10141964;28;20058;-71
2021/10/02 18:25:10;;;;;;;6.40;2.30;;;;;;;14.98;81.31;100547.53;10145255;28;20496;-71
2021/10/02 18:30:07;;;;;;;5.78;2.92;;;;;;;14.97;80.83;100534.91;10132560;28;20053;-71
2021/10/02 18:35:06;;;;;;;5.50;2.25;;;;;;;14.93;81.10;100534.81;10158829;28;20539;-71
2021/10/02 18:40:03;;;;;;;8.02;2.63;;;;;;;14.97;80.26;100532.16;10148858;28;20050;-72
2021/10/02 18:44:59;;;;;;;6.75;2.72;;;;;;;14.98;80.19;100525.50;10139002;28;20149;-72
2021/10/02 18:49:56;;;;;;;4.93;2.20;;;;;;;14.90;80.99;100525.31;10159276;28;20082;-71
2021/10/02 18:54:52;;;;;;;5.75;2.13;;;;;;;14.98;80.12;100514.50;10149068;28;20042;-71
2021/10/02 18:59:49;;;;;;;5.03;2.20;;;;;;;14.97;79.61;100510.13;10146984;28;20069;-73
2021/10/02 19:04:47;;;;;;;4.72;1.73;;;;;;;14.92;79.22;100503.75;10154451;28;20038;-73
2021/10/02 19:09:43;;;;;;;3.80;1.95;;;;;;;14.97;79.02;100507.38;10157645;28;20074;-71
2021/10/02 19:14:40;;;;;;;6.35;2.22;;;;;;;14.99;79.25;100477.53;10150322;28;20519;-72
2021/10/02 19:19:37;;;;;;;3.03;1.52;;;;;;;14.98;78.98;100464.94;10149938;28;20046;-71
2021/10/02 19:24:34;;;;;;;5.43;1.95;;;;;;;15.01;78.62;100464.22;10158854;28;20066;-71
2021/10/02 19:29:34;;;;;;;4.53;1.60;;;;;;;15.04;78.60;100439.56;10142596;28;20050;-71
2021/10/02 19:34:31;;;;;;;4.95;1.90;;;;;;;15.04;78.82;100433.22;10143022;28;20041;-71
2021/10/02 19:39:27;;;;;;;4.80;1.60;;;;;;;15.05;78.75;100426.59;10125449;28;20161;-71
2021/10/02 19:44:24;;;;;;;4.28;1.65;;;;;;;15.03;78.17;100404.09;10142713;28;20039;-72
2021/10/02 19:49:20;;;;;;;5.40;1.92;;;;;;;15.01;79.14;100398.16;10146923;28;20046;-72
2021/10/02 19:54:17;;;;;;;3.17;1.48;;;;;;;15.03;78.49;100393.09;10163467;28;20042;-72
2021/10/02 19:59:13;;;;;;;4.38;1.60;;;;;;;15.02;78.35;100388.75;10136606;28;20129;-71
2021/10/02 20:04:11;;;;;;;3.42;1.55;;;;;;;15.00;78.74;100369.03;10150865;28;20492;-71
2021/10/02 20:09:08;;;;;;;5.50;1.73;;;;;;;15.01;78.27;100365.13;10145805;28;20035;-71
2021/10/02 20:14:04;;;;;;;4.28;1.73;;;;;;;15.03;77.60;100362.81;10161386;28;20077;-71
2021/10/02 20:19:01;;;;;;;5.13;1.60;;;;;;;15.05;77.41;100355.00;10146859;28;20768;-71
2021/10/02 20:23:57;;;;;;;3.85;1.50;;;;;;;15.06;76.98;100356.59;10151722;28;20050;-70
2021/10/02 20:28:54;;;;;;;3.65;1.70;;;;;;;15.07;77.21;100347.19;10142693;28;20133;-70
2021/10/02 20:33:50;;;;;;;3.55;1.65;;;;;;;15.08;76.59;100333.03;10132925;28;20045;-71
2021/10/02 20:38:47;;;;;;;3.20;1.50;;;;;;;15.09;76.58;100328.34;10154919;28;20408;-71
2021/10/02 20:43:45;;;;;;;3.78;1.55;;;;;;;15.08;76.53;100310.22;10138517;28;20518;-72
2021/10/02 20:48:42;;;;;;;5.13;1.45;;;;;;;15.08;76.48;100310.22;10139141;28;20528;-71
2021/10/02 20:53:39;;;;;;;4.68;1.70;;;;;;;15.05;76.31;100302.69;10142979;28;20513;-70
2021/10/02 20:58:36;;;;;;;6.32;1.45;;;;;;;15.07;76.66;100295.66;10147806;28;20065;-70
2021/10/02 21:03:38;;;;;;;4.15;1.70;;;;;;;15.04;76.38;100273.53;10141690;28;20046;-70
2021/10/02 21:08:37;;;;;;;5.40;1.80;;;;;;;15.06;76.68;100262.97;10141698;28;20109;-70
2021/10/02 21:13:34;;;;;;;4.95;1.73;;;;;;;15.06;76.26;100252.78;10143827;28;20053;-70
2021/10/02 21:18:31;;;;;;;5.00;2.00;;;;;;;15.05;76.52;100244.88;10138239;28;20042;-71
2021/10/02 21:23:27;;;;;;;6.70;1.80;;;;;;;15.04;76.53;100241.31;10141793;28;20046;-69
2021/10/02 21:28:28;;;;;;;3.90;1.83;;;;;;;15.05;76.28;100229.16;10143481;28;20054;-70
2021/10/02 21:33:27;;;;;;;5.22;1.80;;;;;;;15.05;76.19;100220.09;10128942;28;20049;-70
2021/10/02 21:38:23;;;;;;;6.35;1.70;;;;;;;15.05;75.96;100209.88;10151159;28;20535;-70
2021/10/02 21:43:20;;;;;;;3.67;1.67;;;;;;;15.05;75.35;100200.81;10156675;28;20137;-71
2021/10/02 21:48:19;;;;;;;4.50;1.75;;;;;;;15.08;74.54;100194.59;10153317;28;20050;-71
2021/10/02 21:53:17;;;;;;;5.32;1.88;;;;;;;15.08;74.12;100195.38;10173543;28;20046;-71
2021/10/02 21:58:14;;;;;;;8.27;1.70;;;;;;;15.10;74.12;100181.25;10160543;28;20078;-71
2021/10/02 22:03:13;;;;;;;7.40;2.22;;;;;;;15.11;73.69;100171.84;10162594;28;20492;-73
2021/10/02 22:08:10;;;;;;;5.47;1.40;;;;;;;15.12;73.02;100162.41;10156418;28;20046;-72
2021/10/02 22:13:06;;;;;;;5.50;1.58;;;;;;;15.15;73.39;100150.69;10137153;28;20047;-71
2021/10/02 22:18:08;;;;;;;6.07;1.65;;;;;;;15.17;72.31;100131.84;10158047;28;20062;-71
2021/10/02 22:23:05;;;;;;;6.93;1.98;;;;;;;15.17;71.93;100129.09;10167153;28;20046;-71
2021/10/02 22:28:01;;;;;;;6.68;1.75;;;;;;;15.19;71.81;100124.00;10173640;28;20579;-70
2021/10/02 22:32:58;;;;;;;4.30;1.73;;;;;;;15.20;71.44;100114.59;10162100;28;20038;-72
2021/10/02 22:37:56;;;;;;;4.18;1.80;;;;;;;15.21;71.54;100098.88;10159700;28;20472;-71
2021/10/02 22:42:55;;;;;;;4.22;1.85;;;;;;;15.23;71.20;100094.59;10159033;28;20096;-74
2021/10/02 22:47:52;;;;;;;6.32;2.17;;;;;;;15.23;71.20;100089.09;10157386;28;20104;-74
2021/10/02 22:52:50;;;;;;;6.65;2.38;;;;;;;15.24;70.97;100093.41;10174770;28;20389;-74
2021/10/02 22:57:46;;;;;;;6.10;2.13;;;;;;;15.25;70.79;100070.25;10163664;28;20038;-71
2021/10/02 23:02:44;;;;;;;7.47;2.47;;;;;;;15.27;70.53;100073.44;10165975;28;20089;-71
2021/10/02 23:07:44;;;;;;;7.90;2.90;;;;;;;15.28;70.76;100069.50;10169002;28;20061;-71
2021/10/02 23:12:40;;;;;;;5.45;2.20;;;;;;;15.28;70.56;100066.75;10167620;28;20141;-71
2021/10/02 23:17:41;;;;;;;6.85;2.30;;;;;;;15.28;71.23;100049.44;10164507;28;20042;-71
2021/10/02 23:22:39;;;;;;;4.72;2.13;;;;;;;15.26;70.98;100047.03;10172256;28;20116;-68
2021/10/02 23:27:42;;;;;;;5.40;2.60;;;;;;;15.26;71.08;100038.78;10170580;28;20494;-70
2021/10/02 23:32:44;;;;;;;6.35;2.70;;;;;;;15.30;70.95;100036.88;10164841;28;20041;-70
2021/10/02 23:37:43;;;;;;;7.70;2.67;;;;;;;15.30;70.92;100025.88;10166273;28;20466;-71